sensor_id;sensor_type;location;lat;lon;timestamp;temperature;humidity
7248;DHT22;3665;51.034;13.642;2023-02-15T00:06:15;-2.10;99.90
7248;DHT22;3665;51.034;13.642;2023-02-15T07:40:25;-1.10;99.90
7248;DHT22;3665;51.034;13.642;2023-02-15T07:45:58;-0.90;99.90
7248;DHT22;3665;51.034;13.642;2023-02-15T07:52:57;-0.70;99.90
7248;DHT22;3665;51.034;13.642;2023-02-15T07:57:58;-0.40;99.90
7248;DHT22;3665;51.034;13.642;2023-02-15T08:29:56;0.30;99.90
7248;DHT22;3665;51.034;13.642;2023-02-15T08:34:43;1.40;99.90
7248;DHT22;3665;51.034;13.642;2023-02-15T08:45:56;2.00;99.90
7248;DHT22;3665;51.034;13.642;2023-02-15T08:51:48;2.40;99.90
7248;DHT22;3665;51.034;13.642;2023-02-15T09:02:29;2.90;99.90
7248;DHT22;3665;51.034;13.642;2023-02-15T09:07:15;3.10;99.90
7248;DHT22;3665;51.034;13.642;2023-02-15T09:23:15;3.70;1.00
7248;DHT22;3665;51.034;13.642;2023-02-15T09:28:42;4.00;99.90
7248;DHT22;3665;51.034;13.642;2023-02-15T09:33:45;4.30;1.00
7248;DHT22;3665;51.034;13.642;2023-02-15T09:38:29;4.60;99.90
7248;DHT22;3665;51.034;13.642;2023-02-15T09:44:12;5.00;99.90
7248;DHT22;3665;51.034;13.642;2023-02-15T09:49:45;5.20;99.90
7248;DHT22;3665;51.034;13.642;2023-02-15T09:55:19;5.60;99.90
7248;DHT22;3665;51.034;13.642;2023-02-15T10:00:10;6.10;99.90
7248;DHT22;3665;51.034;13.642;2023-02-15T10:05:40;6.40;99.90
7248;DHT22;3665;51.034;13.642;2023-02-15T10:10:45;6.50;99.90
7248;DHT22;3665;51.034;13.642;2023-02-15T10:21:56;6.80;99.90
7248;DHT22;3665;51.034;13.642;2023-02-15T10:26:46;6.90;99.90
7248;DHT22;3665;51.034;13.642;2023-02-15T10:31:39;7.10;99.90
7248;DHT22;3665;51.034;13.642;2023-02-15T10:42:45;7.30;99.90
7248;DHT22;3665;51.034;13.642;2023-02-15T10:53:43;7.40;99.90
7248;DHT22;3665;51.034;13.642;2023-02-15T10:59:33;7.30;99.90
7248;DHT22;3665;51.034;13.642;2023-02-15T11:10:26;7.30;99.90
7248;DHT22;3665;51.034;13.642;2023-02-15T11:15:55;7.10;99.90
7248;DHT22;3665;51.034;13.642;2023-02-15T11:21:24;7.30;99.90
7248;DHT22;3665;51.034;13.642;2023-02-15T11:26:51;7.40;99.90
7248;DHT22;3665;51.034;13.642;2023-02-15T11:38:18;7.40;99.90
7248;DHT22;3665;51.034;13.642;2023-02-15T11:43:37;7.60;99.90
7248;DHT22;3665;51.034;13.642;2023-02-15T11:49:19;7.80;99.90
7248;DHT22;3665;51.034;13.642;2023-02-15T11:55:20;7.60;99.90
7248;DHT22;3665;51.034;13.642;2023-02-15T12:00:39;7.60;99.90
7248;DHT22;3665;51.034;13.642;2023-02-15T12:05:28;7.60;99.90
7248;DHT22;3665;51.034;13.642;2023-02-15T12:11:05;7.70;99.90
7248;DHT22;3665;51.034;13.642;2023-02-15T12:16:20;7.80;99.90
7248;DHT22;3665;51.034;13.642;2023-02-15T12:21:42;7.80;99.90
7248;DHT22;3665;51.034;13.642;2023-02-15T12:33:26;7.90;99.90
7248;DHT22;3665;51.034;13.642;2023-02-15T12:38:29;8.10;99.90
7248;DHT22;3665;51.034;13.642;2023-02-15T12:44:22;8.10;99.90
7248;DHT22;3665;51.034;13.642;2023-02-15T12:49:41;8.10;99.90
7248;DHT22;3665;51.034;13.642;2023-02-15T12:55:32;8.20;98.50
7248;DHT22;3665;51.034;13.642;2023-02-15T13:00:41;8.30;98.30
7248;DHT22;3665;51.034;13.642;2023-02-15T13:06:51;8.40;95.30
7248;DHT22;3665;51.034;13.642;2023-02-15T13:11:04;8.30;93.80
7248;DHT22;3665;51.034;13.642;2023-02-15T13:16:36;8.20;98.60
7248;DHT22;3665;51.034;13.642;2023-02-15T13:22:46;8.30;93.10
7248;DHT22;3665;51.034;13.642;2023-02-15T13:27:53;8.20;92.50
7248;DHT22;3665;51.034;13.642;2023-02-15T13:33:17;8.10;93.80
7248;DHT22;3665;51.034;13.642;2023-02-15T13:38:51;8.20;93.50
7248;DHT22;3665;51.034;13.642;2023-02-15T13:43:52;8.00;95.10
7248;DHT22;3665;51.034;13.642;2023-02-15T13:49:18;7.90;95.10
7248;DHT22;3665;51.034;13.642;2023-02-15T14:01:28;7.70;97.70
7248;DHT22;3665;51.034;13.642;2023-02-15T14:06:49;7.50;99.40
7248;DHT22;3665;51.034;13.642;2023-02-15T14:12:27;7.50;96.70
7248;DHT22;3665;51.034;13.642;2023-02-15T14:18:20;7.30;99.30
7248;DHT22;3665;51.034;13.642;2023-02-15T14:24:37;7.00;99.90
7248;DHT22;3665;51.034;13.642;2023-02-15T14:29:58;6.80;99.90
7248;DHT22;3665;51.034;13.642;2023-02-15T14:35:22;6.70;99.90
7248;DHT22;3665;51.034;13.642;2023-02-15T14:40:54;6.40;99.90
7248;DHT22;3665;51.034;13.642;2023-02-15T14:46:34;6.30;99.90
7248;DHT22;3665;51.034;13.642;2023-02-15T14:52:52;6.20;99.90
7248;DHT22;3665;51.034;13.642;2023-02-15T14:58:27;6.20;99.90
7248;DHT22;3665;51.034;13.642;2023-02-15T15:09:43;6.10;99.90
7248;DHT22;3665;51.034;13.642;2023-02-15T15:14:50;5.70;99.90
7248;DHT22;3665;51.034;13.642;2023-02-15T15:20:11;5.50;99.90
7248;DHT22;3665;51.034;13.642;2023-02-15T15:25:42;5.30;99.90
7248;DHT22;3665;51.034;13.642;2023-02-15T15:38:30;4.60;99.90
7248;DHT22;3665;51.034;13.642;2023-02-15T15:50:47;4.20;99.90
7248;DHT22;3665;51.034;13.642;2023-02-15T15:56:30;3.80;99.90
7248;DHT22;3665;51.034;13.642;2023-02-15T16:01:42;3.50;99.90
7248;DHT22;3665;51.034;13.642;2023-02-15T16:12:21;3.10;99.90
7248;DHT22;3665;51.034;13.642;2023-02-15T16:29:40;2.40;1.00
7248;DHT22;3665;51.034;13.642;2023-02-15T16:35:34;2.20;1.00
7248;DHT22;3665;51.034;13.642;2023-02-15T16:40:39;1.90;1.00
7248;DHT22;3665;51.034;13.642;2023-02-15T16:45:28;1.50;1.00
7248;DHT22;3665;51.034;13.642;2023-02-15T16:50:51;1.30;99.90
7248;DHT22;3665;51.034;13.642;2023-02-15T16:56:04;1.10;99.90
7248;DHT22;3665;51.034;13.642;2023-02-15T17:01:26;0.90;1.00
7248;DHT22;3665;51.034;13.642;2023-02-15T17:07:02;0.70;30.80
7248;DHT22;3665;51.034;13.642;2023-02-15T17:17:41;0.70;99.90
7248;DHT22;3665;51.034;13.642;2023-02-15T17:22:50;0.70;1.00
7248;DHT22;3665;51.034;13.642;2023-02-15T17:27:53;0.50;1.00
7248;DHT22;3665;51.034;13.642;2023-02-15T17:33:39;0.40;1.00
7248;DHT22;3665;51.034;13.642;2023-02-15T17:44:44;0.20;99.90
7248;DHT22;3665;51.034;13.642;2023-02-15T17:55:48;0.10;1.00
7248;DHT22;3665;51.034;13.642;2023-02-15T18:01:22;0.00;93.40
7248;DHT22;3665;51.034;13.642;2023-02-15T18:06:51;-0.10;1.00
7248;DHT22;3665;51.034;13.642;2023-02-15T18:12:41;-0.30;1.00
7248;DHT22;3665;51.034;13.642;2023-02-15T18:18:18;-0.50;1.00
7248;DHT22;3665;51.034;13.642;2023-02-15T18:23:38;-0.40;99.90
7248;DHT22;3665;51.034;13.642;2023-02-15T18:28:39;-0.30;1.00
7248;DHT22;3665;51.034;13.642;2023-02-15T18:34:00;-0.30;28.40
7248;DHT22;3665;51.034;13.642;2023-02-15T18:39:01;-0.30;99.90
7248;DHT22;3665;51.034;13.642;2023-02-15T18:44:06;-0.50;99.90
7248;DHT22;3665;51.034;13.642;2023-02-15T18:49:48;-0.60;99.90
7248;DHT22;3665;51.034;13.642;2023-02-15T18:55:35;-0.70;99.90
7248;DHT22;3665;51.034;13.642;2023-02-15T19:01:00;-0.80;1.00
7248;DHT22;3665;51.034;13.642;2023-02-15T19:06:27;-0.90;1.00
7248;DHT22;3665;51.034;13.642;2023-02-15T21:30:33;-1.80;99.90
7248;DHT22;3665;51.034;13.642;2023-02-15T21:37:07;-1.80;99.90
